createdAt,value
2019-05-15T00:00:13.439Z,44.60
2019-05-15T00:02:43.058Z,44.60
2019-05-15T00:05:13.620Z,44.60
2019-05-15T00:07:43.126Z,44.50
2019-05-15T00:10:14.119Z,44.50
2019-05-15T00:12:43.481Z,44.50
2019-05-15T00:15:19.281Z,44.50
2019-05-15T00:17:48.687Z,44.50
2019-05-15T00:20:20.296Z,44.50
2019-05-15T00:22:54.810Z,44.40
2019-05-15T00:25:28.255Z,44.40
2019-05-15T00:31:00.435Z,44.40
2019-05-15T00:33:48.259Z,44.40
2019-05-15T00:36:19.265Z,44.40
2019-05-15T00:38:48.983Z,44.40
2019-05-15T00:41:29.115Z,44.40
2019-05-15T00:44:01.239Z,44.40
2019-05-15T00:46:42.409Z,44.40
2019-05-15T00:49:11.826Z,44.30
2019-05-15T00:51:45.665Z,44.30
2019-05-15T00:54:16.042Z,44.30
2019-05-15T00:56:45.606Z,44.30
2019-05-15T00:59:25.919Z,44.20
2019-05-15T01:01:53.876Z,44.30
2019-05-15T01:04:23.276Z,44.20
2019-05-15T01:06:54.867Z,44.30
2019-05-15T01:09:30.726Z,44.20
2019-05-15T01:11:59.884Z,44.20
2019-05-15T01:14:29.291Z,44.30
2019-05-15T01:16:58.580Z,44.30
2019-05-15T01:19:32.358Z,44.20
2019-05-15T01:22:01.746Z,44.20
2019-05-15T01:24:31.464Z,44.20
2019-05-15T01:27:01.378Z,44.20
2019-05-15T01:29:41.842Z,44.10
2019-05-15T01:34:48.863Z,44.10
2019-05-15T01:37:18.750Z,44.10
2019-05-15T01:39:48.548Z,44.10
2019-05-15T01:42:40.699Z,44.10
2019-05-15T01:45:08.642Z,44.10
2019-05-15T01:47:44.491Z,44.10
2019-05-15T01:50:18.583Z,44.10
2019-05-15T01:52:48.271Z,44.00
2019-05-15T01:58:08.778Z,44.00
2019-05-15T02:00:39.136Z,43.90
2019-05-15T02:03:10.890Z,44.00
2019-05-15T02:08:42.518Z,43.90
2019-05-15T02:11:14.935Z,43.90
2019-05-15T02:13:44.451Z,43.90
2019-05-15T02:16:13.566Z,43.90
2019-05-15T02:18:43.014Z,43.90
2019-05-15T02:21:15.374Z,43.90
2019-05-15T02:23:44.583Z,43.90
2019-05-15T02:26:14.087Z,43.90
2019-05-15T02:28:59.803Z,43.80
2019-05-15T02:31:40.934Z,43.80
2019-05-15T02:34:13.361Z,43.80
2019-05-15T02:36:49.288Z,43.80
2019-05-15T02:39:23.600Z,43.80
2019-05-15T02:41:59.283Z,43.80
2019-05-15T02:47:52.217Z,43.70
2019-05-15T02:50:21.649Z,43.80
2019-05-15T02:52:51.123Z,43.80
2019-05-15T02:55:20.635Z,43.70
2019-05-15T02:57:50.164Z,43.80
2019-05-15T03:00:43.993Z,43.70
2019-05-15T03:03:21.498Z,43.70
2019-05-15T03:05:51.202Z,43.70
2019-05-15T03:08:20.999Z,43.70
2019-05-15T03:10:53.289Z,43.70
2019-05-15T03:13:39.170Z,43.60
2019-05-15T03:16:10.509Z,43.70
2019-05-15T03:18:49.824Z,43.70
2019-05-15T03:21:18.785Z,43.50
2019-05-15T03:23:59.419Z,43.60
2019-05-15T03:26:39.210Z,43.50
2019-05-15T03:29:42.839Z,43.60
2019-05-15T03:32:32.905Z,43.60
2019-05-15T03:35:03.737Z,43.60
2019-05-15T03:37:33.439Z,43.50
2019-05-15T03:40:03.212Z,43.50
2019-05-15T03:43:10.294Z,43.50
2019-05-15T03:45:40.731Z,43.50
2019-05-15T03:48:10.307Z,43.50
2019-05-15T03:50:40.816Z,43.60
2019-05-15T03:53:10.906Z,43.50
2019-05-15T03:55:43.550Z,43.50
2019-05-15T03:58:12.739Z,43.40
2019-05-15T04:00:42.047Z,43.40
2019-05-15T04:03:20.222Z,43.40
2019-05-15T04:06:09.975Z,43.40
2019-05-15T04:12:10.490Z,43.40
2019-05-15T04:14:39.978Z,43.40
2019-05-15T04:17:09.344Z,43.40
2019-05-15T04:19:51.713Z,43.40
2019-05-15T04:22:21.035Z,43.30
2019-05-15T04:25:22.141Z,44.00
2019-05-15T04:27:51.752Z,43.30
2019-05-15T04:36:10.973Z,43.20
2019-05-15T04:38:41.738Z,43.40
2019-05-15T04:41:29.661Z,43.30
2019-05-15T04:43:59.791Z,43.30
2019-05-15T04:46:29.913Z,43.30
2019-05-15T04:49:02.391Z,43.20
2019-05-15T04:51:32.040Z,43.20
2019-05-15T04:54:01.471Z,43.20
2019-05-15T04:56:31.153Z,43.10
2019-05-15T04:59:05.579Z,43.10
2019-05-15T05:01:44.014Z,43.10
2019-05-15T05:04:13.399Z,43.10
2019-05-15T05:06:42.685Z,43.10
2019-05-15T05:09:12.156Z,43.10
2019-05-15T05:11:43.575Z,43.10
2019-05-15T05:14:32.369Z,43.10
2019-05-15T05:17:03.754Z,43.20
2019-05-15T05:19:35.602Z,43.50
2019-05-15T05:22:07.837Z,45.10
2019-05-15T05:24:38.515Z,46.50
2019-05-15T05:27:08.735Z,46.40
2019-05-15T05:29:38.650Z,47.80
2019-05-15T05:32:43.959Z,49.10
2019-05-15T05:35:18.522Z,49.30
2019-05-15T05:37:48.327Z,49.20
2019-05-15T05:40:34.144Z,48.90
2019-05-15T05:43:03.548Z,48.70
2019-05-15T05:45:44.538Z,48.50
2019-05-15T05:48:14.482Z,48.30
2019-05-15T05:50:44.570Z,48.00
2019-05-15T05:53:24.569Z,47.80
2019-05-15T05:55:54.546Z,47.60
2019-05-15T05:58:24.643Z,47.20
2019-05-15T06:00:58.575Z,47.10
2019-05-15T06:03:24.937Z,46.60
2019-05-15T06:05:54.029Z,46.30
2019-05-15T06:08:23.506Z,46.10
2019-05-15T06:10:52.731Z,46.00
2019-05-15T06:13:22.082Z,46.00
2019-05-15T06:15:51.384Z,45.90
2019-05-15T06:18:20.579Z,45.80
2019-05-15T06:20:50.020Z,45.50
2019-05-15T06:23:24.897Z,45.50
2019-05-15T06:25:55.990Z,45.30
2019-05-15T06:28:28.966Z,45.20
2019-05-15T06:31:00.797Z,44.90
2019-05-15T06:33:40.699Z,44.90
2019-05-15T06:36:17.991Z,44.70
2019-05-15T06:38:51.643Z,44.70
2019-05-15T06:41:21.513Z,44.70
2019-05-15T06:43:53.675Z,44.70
2019-05-15T06:46:28.014Z,44.40
2019-05-15T06:48:59.391Z,44.20
2019-05-15T06:51:31.772Z,44.00
2019-05-15T06:54:04.184Z,44.00
2019-05-15T06:56:38.868Z,43.70
2019-05-15T06:59:09.236Z,43.70
2019-05-15T07:01:41.461Z,43.60
2019-05-15T07:04:14.040Z,43.60
2019-05-15T07:06:50.715Z,43.50
2019-05-15T07:09:35.003Z,43.40
2019-05-15T07:12:08.562Z,43.40
2019-05-15T07:14:39.868Z,43.50
2019-05-15T07:17:09.439Z,43.40
2019-05-15T07:19:50.916Z,43.30
2019-05-15T07:22:18.219Z,43.40
2019-05-15T07:24:47.901Z,43.00
2019-05-15T07:27:22.471Z,42.10
2019-05-15T07:29:52.533Z,40.80
2019-05-15T07:32:34.668Z,40.40
2019-05-15T07:35:16.022Z,39.80
2019-05-15T07:37:47.757Z,38.80
2019-05-15T07:40:19.306Z,38.10
2019-05-15T07:42:58.578Z,38.00
2019-05-15T07:45:43.785Z,37.60
2019-05-15T07:48:11.255Z,37.10
2019-05-15T07:50:49.537Z,37.00
2019-05-15T07:53:25.610Z,37.20
2019-05-15T07:56:24.082Z,37.00
2019-05-15T07:59:41.471Z,37.00
2019-05-15T08:01:58.158Z,37.20
2019-05-15T08:04:32.941Z,37.40
2019-05-15T08:07:09.107Z,37.70
2019-05-15T08:13:10.635Z,38.00
2019-05-15T08:15:44.644Z,38.30
2019-05-15T08:18:48.859Z,38.50
2019-05-15T08:21:58.278Z,38.60
2019-05-15T08:24:29.837Z,38.90
2019-05-15T08:28:57.963Z,39.00
2019-05-15T08:30:01.902Z,39.20
2019-05-15T08:32:31.502Z,39.30
2019-05-15T08:35:24.133Z,39.40
2019-05-15T08:38:03.630Z,39.50
2019-05-15T08:43:48.881Z,39.70
2019-05-15T08:46:19.452Z,39.80
2019-05-15T08:53:08.372Z,39.90
2019-05-15T08:55:43.828Z,40.10
2019-05-15T09:04:34.913Z,40.40
2019-05-15T09:07:12.066Z,40.50
2019-05-15T09:09:45.253Z,40.60
2019-05-15T09:12:20.719Z,40.70
2019-05-15T09:15:07.751Z,40.70
2019-05-15T09:18:14.832Z,40.80
2019-05-15T09:20:38.157Z,40.80
2019-05-15T09:23:05.873Z,40.90
2019-05-15T09:25:38.833Z,40.90
2019-05-15T09:28:10.615Z,41.00
2019-05-15T09:31:08.347Z,41.00
2019-05-15T09:33:38.777Z,41.10
2019-05-15T09:36:09.108Z,41.20
2019-05-15T09:38:39.252Z,41.10
2019-05-15T09:41:09.155Z,41.20
2019-05-15T09:43:40.583Z,41.30
2019-05-15T09:46:10.370Z,41.30
2019-05-15T09:48:39.844Z,41.20
2019-05-15T09:51:33.602Z,41.30
2019-05-15T09:57:49.092Z,41.40
2019-05-15T10:00:52.185Z,41.40
2019-05-15T10:03:48.582Z,41.60
2019-05-15T10:06:20.585Z,41.50
2019-05-15T10:09:12.468Z,41.50
2019-05-15T10:15:19.367Z,41.30
2019-05-15T10:18:12.128Z,41.50
2019-05-15T10:21:02.027Z,41.50
2019-05-15T10:23:34.682Z,41.50
2019-05-15T10:26:06.900Z,41.60
2019-05-15T10:28:39.129Z,41.50
2019-05-15T10:31:15.762Z,41.60
2019-05-15T10:33:55.200Z,41.60
2019-05-15T10:37:08.414Z,41.60
2019-05-15T10:39:52.060Z,42.20
2019-05-15T10:42:49.789Z,41.60
2019-05-15T10:45:30.525Z,41.70
2019-05-15T10:48:43.770Z,41.70
2019-05-15T10:54:38.095Z,41.70
2019-05-15T10:57:09.004Z,41.80
2019-05-15T10:59:47.820Z,42.50
2019-05-15T11:02:29.097Z,41.80
2019-05-15T11:04:58.403Z,41.70
2019-05-15T11:07:28.464Z,41.80
2019-05-15T11:09:59.826Z,41.80
2019-05-15T11:12:29.390Z,41.80
2019-05-15T11:15:04.570Z,41.90
2019-05-15T11:17:43.178Z,41.90
2019-05-15T11:20:26.572Z,41.80
2019-05-15T11:22:59.185Z,41.90
2019-05-15T11:25:51.942Z,41.80
2019-05-15T11:28:32.115Z,41.90
2019-05-15T11:31:10.857Z,41.90
2019-05-15T11:33:52.817Z,41.90
2019-05-15T11:36:22.463Z,41.90
2019-05-15T11:38:51.712Z,41.90
2019-05-15T11:41:21.217Z,41.80
2019-05-15T11:43:50.451Z,41.80
2019-05-15T11:46:19.509Z,41.80
2019-05-15T11:48:49.877Z,41.80
2019-05-15T11:51:19.480Z,41.80
2019-05-15T11:53:50.274Z,41.80
2019-05-15T11:56:29.343Z,41.80
2019-05-15T11:58:58.192Z,41.80
2019-05-15T12:01:28.785Z,41.90
2019-05-15T12:03:59.459Z,41.80
2019-05-15T12:06:30.041Z,41.80
2019-05-15T12:09:00.691Z,41.80
2019-05-15T12:11:37.023Z,41.80
2019-05-15T12:14:08.499Z,41.80
2019-05-15T12:17:02.433Z,41.70
2019-05-15T12:19:20.954Z,41.70
2019-05-15T12:22:07.562Z,41.70
2019-05-15T12:24:40.496Z,41.80
2019-05-15T12:30:22.189Z,41.70
2019-05-15T12:33:00.193Z,41.70
2019-05-15T12:35:31.831Z,41.70
2019-05-15T12:38:01.419Z,41.70
2019-05-15T13:01:17.182Z,41.70
2019-05-15T13:07:13.891Z,41.60
2019-05-15T13:09:42.010Z,41.70
2019-05-15T13:12:11.370Z,41.60
2019-05-15T13:14:41.838Z,41.50
2019-05-15T13:17:14.142Z,41.50
2019-05-15T13:19:43.467Z,41.50
2019-05-15T13:25:22.944Z,41.30
2019-05-15T13:27:54.611Z,41.50
2019-05-15T13:30:25.782Z,41.60
2019-05-15T13:32:58.734Z,41.60
2019-05-15T13:35:38.031Z,41.70
2019-05-15T13:38:21.678Z,41.70
2019-05-15T13:41:20.379Z,41.80
2019-05-15T13:44:24.172Z,41.70
2019-05-15T13:54:49.218Z,40.90
2019-05-15T13:58:08.762Z,40.50
2019-05-15T14:03:58.630Z,40.30
2019-05-15T14:13:11.696Z,40.20
2019-05-15T14:15:59.645Z,40.10
2019-05-15T14:18:39.398Z,39.30
2019-05-15T14:21:28.559Z,38.60
2019-05-15T14:30:58.847Z,38.20
2019-05-15T14:33:29.112Z,38.20
2019-05-15T14:36:18.390Z,38.30
2019-05-15T14:39:21.026Z,38.30
2019-05-15T14:42:18.436Z,38.30
2019-05-15T14:45:13.649Z,38.40
2019-05-15T14:47:58.089Z,38.40
2019-05-15T14:50:44.988Z,38.60
2019-05-15T14:56:55.511Z,38.60
2019-05-15T14:59:38.184Z,38.60
2019-05-15T15:02:31.989Z,38.60
2019-05-15T15:05:15.186Z,38.50
2019-05-15T15:07:44.953Z,38.70
2019-05-15T15:10:14.305Z,38.60
2019-05-15T15:12:46.388Z,38.70
2019-05-15T15:15:18.122Z,38.70
2019-05-15T15:17:49.243Z,38.90
2019-05-15T15:20:18.826Z,40.00
2019-05-15T15:22:48.701Z,40.70
2019-05-15T15:25:22.332Z,40.90
2019-05-15T15:27:49.327Z,41.70
2019-05-15T15:30:21.315Z,42.70
2019-05-15T15:32:50.696Z,44.80
2019-05-15T15:35:20.298Z,44.90
2019-05-15T15:37:52.736Z,44.60
2019-05-15T15:40:25.271Z,44.50
2019-05-15T15:42:54.602Z,44.00
2019-05-15T15:45:24.889Z,43.70
2019-05-15T15:47:53.744Z,43.80
2019-05-15T15:50:25.189Z,43.50
2019-05-15T15:52:56.409Z,43.30
2019-05-15T15:55:25.750Z,43.10
2019-05-15T15:57:59.243Z,43.20
2019-05-15T16:00:28.835Z,42.80
2019-05-15T16:02:58.382Z,42.20
2019-05-15T16:05:29.066Z,42.10
2019-05-15T16:07:59.183Z,41.10
2019-05-15T16:10:31.794Z,39.80
2019-05-15T16:13:02.074Z,39.40
2019-05-15T16:16:00.104Z,39.90
2019-05-15T16:18:30.655Z,39.40
2019-05-15T16:21:00.078Z,39.50
2019-05-15T16:23:39.043Z,39.50
2019-05-15T16:26:09.220Z,39.50
2019-05-15T16:28:38.909Z,39.60
2019-05-15T16:31:08.254Z,39.40
2019-05-15T16:33:39.028Z,39.30
2019-05-15T16:36:13.123Z,38.90
2019-05-15T16:39:03.692Z,38.80
2019-05-15T16:41:24.457Z,39.00
2019-05-15T16:43:53.900Z,39.00
2019-05-15T16:46:29.691Z,39.10
2019-05-15T16:48:59.938Z,39.20
2019-05-15T16:51:32.214Z,39.20
2019-05-15T16:54:24.343Z,39.20
2019-05-15T16:57:04.316Z,39.20
2019-05-15T16:59:38.801Z,39.30
2019-05-15T17:02:08.776Z,38.50
2019-05-15T17:04:44.212Z,38.10
2019-05-15T17:07:22.852Z,38.50
2019-05-15T17:09:56.079Z,38.80
2019-05-15T17:12:27.831Z,39.00
2019-05-15T17:14:58.304Z,38.90
2019-05-15T17:17:27.716Z,38.50
2019-05-15T17:19:57.928Z,38.40
2019-05-15T17:22:28.824Z,37.40
2019-05-15T17:24:58.390Z,36.90
2019-05-15T17:27:28.898Z,36.80
2019-05-15T17:29:58.502Z,36.80
2019-05-15T17:32:29.050Z,36.80
2019-05-15T17:35:01.685Z,37.70
2019-05-15T17:37:33.915Z,38.10
2019-05-15T17:40:02.996Z,38.70
2019-05-15T17:42:35.215Z,38.00
2019-05-15T17:45:04.432Z,38.10
2019-05-15T17:47:33.976Z,38.20
2019-05-15T17:50:04.452Z,38.30
2019-05-15T17:52:33.503Z,38.40
2019-05-15T17:55:02.727Z,38.50
2019-05-15T17:57:31.840Z,38.50
2019-05-15T18:00:00.839Z,38.60
2019-05-15T18:02:30.074Z,38.50
2019-05-15T18:05:02.905Z,38.60
2019-05-15T18:07:32.288Z,38.60
2019-05-15T18:10:01.235Z,38.70
2019-05-15T18:12:31.206Z,38.70
2019-05-15T18:15:03.269Z,38.80
2019-05-15T18:17:34.227Z,38.80
2019-05-15T18:20:03.705Z,39.00
2019-05-15T18:22:33.033Z,39.00
2019-05-15T18:25:02.434Z,39.10
2019-05-15T18:27:31.697Z,39.20
2019-05-15T18:30:05.380Z,39.40
2019-05-15T18:32:34.481Z,39.40
2019-05-15T18:35:04.120Z,39.70
2019-05-15T18:37:42.248Z,40.00
2019-05-15T18:40:24.884Z,40.10
2019-05-15T18:43:15.294Z,40.10
2019-05-15T18:45:55.537Z,40.20
2019-05-15T18:48:45.179Z,40.20
2019-05-15T18:51:15.217Z,40.30
2019-05-15T18:53:45.027Z,40.30
2019-05-15T18:56:14.117Z,40.30
2019-05-15T18:58:43.251Z,40.40
2019-05-15T19:01:15.114Z,40.40
2019-05-15T19:03:44.299Z,40.40
2019-05-15T19:06:13.597Z,40.40
2019-05-15T19:08:42.997Z,40.50
2019-05-15T19:11:12.193Z,40.50
2019-05-15T19:13:41.256Z,40.40
2019-05-15T19:16:10.994Z,40.60
2019-05-15T19:18:40.216Z,41.00
2019-05-15T19:21:09.711Z,41.10
2019-05-15T19:23:40.463Z,41.30
2019-05-15T19:26:11.770Z,41.40
2019-05-15T19:28:40.147Z,41.60
2019-05-15T19:31:09.108Z,42.10
2019-05-15T19:33:41.144Z,42.10
2019-05-15T19:36:09.146Z,42.30
2019-05-15T19:38:42.960Z,42.10
2019-05-15T19:41:12.676Z,41.90
2019-05-15T19:43:41.682Z,41.90
2019-05-15T19:46:10.775Z,41.80
2019-05-15T19:48:39.792Z,41.60
2019-05-15T19:51:09.129Z,41.50
2019-05-15T19:53:38.369Z,41.40
2019-05-15T19:56:08.415Z,41.30
2019-05-15T19:58:37.631Z,41.20
2019-05-15T20:01:08.212Z,41.20
2019-05-15T20:03:49.711Z,41.20
2019-05-15T20:06:08.391Z,41.10
2019-05-15T20:08:38.556Z,41.10
2019-05-15T20:11:10.284Z,41.10
2019-05-15T20:13:38.516Z,41.10
2019-05-15T20:16:07.480Z,41.30
2019-05-15T20:18:38.597Z,41.30
2019-05-15T20:21:08.851Z,41.30
2019-05-15T20:23:38.274Z,41.40
2019-05-15T20:26:10.620Z,41.50
2019-05-15T20:28:39.916Z,41.60
2019-05-15T20:31:08.892Z,41.60
2019-05-15T20:33:41.130Z,41.70
2019-05-15T20:36:15.384Z,41.80
2019-05-15T20:38:44.336Z,41.80
2019-05-15T20:41:13.241Z,41.90
2019-05-15T20:43:45.526Z,41.90
2019-05-15T20:46:14.467Z,42.70
2019-05-15T20:48:43.877Z,42.10
2019-05-15T20:51:12.991Z,42.10
2019-05-15T20:54:08.388Z,42.10
2019-05-15T20:56:49.081Z,42.20
2019-05-15T20:59:20.183Z,42.90
2019-05-15T21:01:59.358Z,42.10
2019-05-15T21:04:30.967Z,42.20
2019-05-15T21:07:04.363Z,42.20
2019-05-15T21:09:39.709Z,42.10
2019-05-15T21:12:26.423Z,42.10
2019-05-15T21:14:59.300Z,42.10
2019-05-15T21:17:43.314Z,42.10
2019-05-15T21:20:42.232Z,42.10
2019-05-15T21:23:18.131Z,42.10
2019-05-15T21:26:07.737Z,42.10
2019-05-15T21:31:53.473Z,42.00
2019-05-15T21:34:44.452Z,42.00
2019-05-15T21:37:12.373Z,41.90
2019-05-15T21:40:21.930Z,42.00
2019-05-15T21:42:51.516Z,42.10
2019-05-15T21:45:48.832Z,42.00
2019-05-15T21:48:38.227Z,42.00
2019-05-15T21:51:33.913Z,42.00
2019-05-15T21:54:10.025Z,42.00
2019-05-15T21:56:41.320Z,42.00
2019-05-15T21:59:22.113Z,42.00
2019-05-15T22:01:53.258Z,42.00
2019-05-15T22:04:25.550Z,42.00
2019-05-15T22:06:58.489Z,41.90
2019-05-15T22:09:40.100Z,42.00
2019-05-15T22:12:28.649Z,41.90
2019-05-15T22:14:58.246Z,42.00
2019-05-15T22:17:29.332Z,42.00
2019-05-15T22:19:58.813Z,41.90
2019-05-15T22:22:38.649Z,41.90
2019-05-15T22:25:11.233Z,41.90
2019-05-15T22:27:45.941Z,41.90
2019-05-15T22:30:23.083Z,42.00
2019-05-15T22:32:55.367Z,41.90
2019-05-15T22:35:31.747Z,41.90
2019-05-15T22:38:13.140Z,41.90
2019-05-15T22:40:57.663Z,41.90
2019-05-15T22:43:28.848Z,41.90
2019-05-15T22:45:58.963Z,41.90
2019-05-15T22:48:28.819Z,41.90
2019-05-15T22:51:01.475Z,41.90
2019-05-15T22:53:31.114Z,41.90
2019-05-15T22:56:02.316Z,41.90
2019-05-15T22:58:38.688Z,41.90
2019-05-15T23:01:09.409Z,41.90
2019-05-15T23:03:39.587Z,41.90
2019-05-15T23:06:10.370Z,41.90
2019-05-15T23:08:48.909Z,41.90
2019-05-15T23:11:24.760Z,41.90
2019-05-15T23:13:53.952Z,41.90
2019-05-15T23:16:25.454Z,41.90
2019-05-15T23:18:54.735Z,41.90
2019-05-15T23:21:24.258Z,41.90
2019-05-15T23:23:55.655Z,41.90
2019-05-15T23:26:25.221Z,41.90
2019-05-15T23:28:55.134Z,42.60
2019-05-15T23:31:24.357Z,41.90
2019-05-15T23:33:53.738Z,41.90
2019-05-15T23:36:25.237Z,41.90
2019-05-15T23:38:59.812Z,41.90
2019-05-15T23:41:29.153Z,41.90
2019-05-15T23:44:01.898Z,42.00
2019-05-15T23:46:32.571Z,41.90
2019-05-15T23:49:05.694Z,41.90
2019-05-15T23:51:35.201Z,41.90
2019-05-15T23:54:04.717Z,42.00
2019-05-15T23:56:44.887Z,42.00
2019-05-15T23:59:05.284Z,42.00
